Time;durP1;ratioP1;P1;durP2;ratioP2;P2;SDS_P1;SDS_P2;PMS_P1;PMS_P2;Temp;Humidity;BMP_temperature;BMP_pressure;BME280_temperature;BME280_humidity;BME280_pressure;Samples;Min_cycle;Max_cycle;Signal;HPM_P1;HPM_P2
2024/02/27 00:01:12;;;;;;;41.50;18.92;;;9.30;99.90;;;;;;5101311;28;20079;-78
2024/02/27 00:03:40;;;;;;;38.47;18.88;;;9.30;99.90;;;;;;5079695;28;20567;-78
2024/02/27 00:06:09;;;;;;;33.83;17.92;;;9.30;99.90;;;;;;5088257;28;20072;-78
2024/02/27 00:08:37;;;;;;;37.75;19.83;;;9.20;99.90;;;;;;5082728;28;20106;-79
2024/02/27 00:11:06;;;;;;;41.03;19.77;;;9.20;99.90;;;;;;5098897;28;20040;-78
2024/02/27 00:13:36;;;;;;;41.15;18.10;;;9.20;99.90;;;;;;5090301;28;20044;-79
2024/02/27 00:16:06;;;;;;;34.67;16.88;;;9.20;99.90;;;;;;5101002;28;20560;-77
2024/02/27 00:18:35;;;;;;;37.17;19.30;;;9.20;99.90;;;;;;5082864;28;20450;-77
2024/02/27 00:21:03;;;;;;;34.83;17.48;;;9.20;99.90;;;;;;5084770;28;20512;-77
2024/02/27 00:23:32;;;;;;;32.67;16.30;;;9.20;99.90;;;;;;5094654;28;20040;-77
2024/02/27 00:26:01;;;;;;;34.63;17.80;;;9.20;99.90;;;;;;5104713;27;20200;-79
2024/02/27 00:28:29;;;;;;;34.83;17.27;;;9.20;99.90;;;;;;5085547;28;20551;-79
2024/02/27 00:31:00;;;;;;;36.83;17.40;;;9.30;99.90;;;;;;5107802;27;20079;-78
2024/02/27 00:33:28;;;;;;;36.90;17.77;;;9.20;99.90;;;;;;5087311;28;20098;-77
2024/02/27 00:35:57;;;;;;;35.15;17.35;;;9.30;99.90;;;;;;5087598;28;20087;-79
2024/02/27 00:38:25;;;;;;;35.35;17.25;;;9.30;99.90;;;;;;5089388;28;20458;-78
2024/02/27 00:40:54;;;;;;;34.28;16.30;;;9.30;99.90;;;;;;5084910;28;20118;-78
2024/02/27 00:43:23;;;;;;;33.70;16.73;;;9.30;99.90;;;;;;5091122;28;20082;-78
2024/02/27 00:45:51;;;;;;;34.25;16.60;;;9.30;99.90;;;;;;5088232;28;20052;-78
2024/02/27 00:48:21;;;;;;;35.88;15.93;;;9.30;99.90;;;;;;5088829;28;20552;-78
2024/02/27 00:50:50;;;;;;;34.42;15.00;;;9.30;99.90;;;;;;5089180;28;20105;-78
2024/02/27 00:53:21;;;;;;;36.45;15.85;;;9.20;99.90;;;;;;5073558;28;20036;-78
2024/02/27 00:55:49;;;;;;;34.20;15.35;;;9.20;99.90;;;;;;5076060;28;20410;-78
2024/02/27 00:58:18;;;;;;;34.67;15.82;;;9.20;99.90;;;;;;5088296;28;20401;-78
2024/02/27 01:00:46;;;;;;;28.63;13.73;;;9.20;99.90;;;;;;5085718;28;20415;-79
2024/02/27 01:03:15;;;;;;;28.63;14.43;;;9.20;99.90;;;;;;5088622;28;20525;-78
2024/02/27 01:05:45;;;;;;;26.48;13.80;;;9.20;99.90;;;;;;5086147;28;20093;-78
2024/02/27 01:08:13;;;;;;;26.88;13.68;;;9.10;99.90;;;;;;5104127;27;20127;-77
2024/02/27 01:10:42;;;;;;;30.35;14.00;;;9.20;99.90;;;;;;5100685;27;20060;-78
2024/02/27 01:13:10;;;;;;;26.70;12.07;;;9.20;99.90;;;;;;5085945;28;20055;-78
2024/02/27 01:15:38;;;;;;;27.50;13.40;;;9.20;99.90;;;;;;5088524;28;20412;-78
2024/02/27 01:18:07;;;;;;;27.50;13.18;;;9.20;99.90;;;;;;5084248;28;20127;-79
2024/02/27 01:20:36;;;;;;;25.60;12.57;;;9.10;99.90;;;;;;5081778;28;20144;-78
2024/02/27 01:23:05;;;;;;;29.60;12.88;;;9.20;99.90;;;;;;5101762;28;20598;-77
2024/02/27 01:25:34;;;;;;;25.42;11.75;;;9.20;99.90;;;;;;5084921;28;20059;-78
2024/02/27 01:28:02;;;;;;;26.58;12.10;;;9.20;99.90;;;;;;5091361;28;20148;-78
2024/02/27 01:30:31;;;;;;;26.30;12.02;;;9.20;99.90;;;;;;5101911;28;20040;-78
2024/02/27 01:32:59;;;;;;;26.73;11.15;;;9.10;99.90;;;;;;5087402;28;20067;-78
2024/02/27 01:35:29;;;;;;;24.58;11.43;;;9.10;99.90;;;;;;5102853;27;20525;-78
2024/02/27 01:37:57;;;;;;;24.13;11.30;;;9.10;99.90;;;;;;5091292;28;20483;-79
2024/02/27 01:40:27;;;;;;;23.23;11.07;;;9.20;99.90;;;;;;5103219;27;20049;-77
2024/02/27 01:42:55;;;;;;;24.42;11.27;;;9.20;99.90;;;;;;5079367;28;20580;-76
2024/02/27 01:45:25;;;;;;;22.27;11.30;;;9.20;99.90;;;;;;5084823;28;20544;-77
2024/02/27 01:47:54;;;;;;;21.63;10.25;;;9.20;99.90;;;;;;5090584;28;20402;-77
2024/02/27 01:50:25;;;;;;;20.95;10.15;;;9.20;99.90;;;;;;5101637;28;20059;-77
2024/02/27 01:52:54;;;;;;;21.88;9.52;;;9.20;99.90;;;;;;5099114;28;20064;-77
2024/02/27 01:55:22;;;;;;;21.55;10.38;;;9.20;99.90;;;;;;5106351;28;20208;-79
2024/02/27 01:57:53;;;;;;;22.52;10.25;;;9.20;99.90;;;;;;5082410;28;20094;-79
2024/02/27 02:00:22;;;;;;;19.10;9.30;;;9.20;99.90;;;;;;5097660;28;20059;-77
2024/02/27 02:02:51;;;;;;;21.88;10.77;;;9.30;99.90;;;;;;5089122;28;20602;-78
2024/02/27 02:05:19;;;;;;;23.35;10.43;;;9.30;99.90;;;;;;5075910;28;20044;-76
2024/02/27 02:07:48;;;;;;;22.08;9.55;;;9.20;99.90;;;;;;5088884;28;20079;-77
2024/02/27 02:10:16;;;;;;;21.67;9.70;;;9.30;99.90;;;;;;5088411;28;20048;-77
2024/02/27 02:12:45;;;;;;;22.40;10.10;;;9.30;99.90;;;;;;5102762;27;20035;-77
2024/02/27 02:15:15;;;;;;;19.55;10.00;;;9.20;99.90;;;;;;5082001;28;20052;-77
2024/02/27 02:17:43;;;;;;;20.13;8.95;;;9.30;99.90;;;;;;5086475;28;20109;-78
2024/02/27 02:20:17;;;;;;;19.10;9.57;;;9.30;99.90;;;;;;5090375;28;20410;-76
2024/02/27 02:22:45;;;;;;;20.80;9.45;;;9.30;99.90;;;;;;5100821;28;20044;-76
2024/02/27 02:25:16;;;;;;;21.90;10.52;;;9.30;99.90;;;;;;5085854;28;20047;-78
2024/02/27 02:27:45;;;;;;;17.15;9.98;;;9.30;99.90;;;;;;5099551;28;20442;-78
2024/02/27 02:30:14;;;;;;;22.83;10.13;;;9.30;99.90;;;;;;5088703;28;20514;-77
2024/02/27 02:32:50;;;;;;;21.17;10.02;;;9.30;99.90;;;;;;5085163;28;20067;-76
2024/02/27 02:35:20;;;;;;;19.92;10.07;;;9.30;99.90;;;;;;5092203;28;20048;-78
2024/02/27 02:37:49;;;;;;;22.02;9.60;;;9.30;99.90;;;;;;5066725;28;20135;-79
2024/02/27 02:40:19;;;;;;;20.45;9.93;;;9.30;99.90;;;;;;5098057;28;20063;-78
2024/02/27 02:42:48;;;;;;;18.40;8.70;;;9.40;99.90;;;;;;5074114;28;20056;-80
2024/02/27 02:45:16;;;;;;;19.00;9.63;;;9.40;99.90;;;;;;5096287;28;20040;-79
2024/02/27 02:47:44;;;;;;;20.90;10.32;;;9.40;99.90;;;;;;5088034;28;20076;-78
2024/02/27 02:50:13;;;;;;;19.73;9.57;;;9.40;99.90;;;;;;5088660;28;20446;-78
2024/02/27 02:52:44;;;;;;;23.45;9.55;;;9.40;99.90;;;;;;5087531;28;20044;-78
2024/02/27 02:55:13;;;;;;;22.27;9.27;;;9.40;99.90;;;;;;5087250;28;20044;-78
2024/02/27 02:57:42;;;;;;;16.52;8.75;;;9.40;99.90;;;;;;5098574;28;20518;-77
2024/02/27 03:00:11;;;;;;;23.33;10.23;;;9.40;99.90;;;;;;5097784;28;20381;-78
2024/02/27 03:02:40;;;;;;;18.75;8.60;;;9.40;99.90;;;;;;5083345;28;20044;-77
2024/02/27 03:05:12;;;;;;;18.85;9.60;;;9.40;99.90;;;;;;5097938;28;20426;-78
2024/02/27 03:07:41;;;;;;;19.83;10.50;;;9.40;99.90;;;;;;5084484;28;20043;-76
2024/02/27 03:10:11;;;;;;;20.70;9.98;;;9.50;99.90;;;;;;5097153;28;20505;-77
2024/02/27 03:12:43;;;;;;;19.77;9.75;;;9.50;99.90;;;;;;5087877;28;20406;-78
2024/02/27 03:15:12;;;;;;;19.08;8.75;;;9.50;99.90;;;;;;5085672;28;20123;-76
2024/02/27 03:17:40;;;;;;;19.65;9.48;;;9.50;99.90;;;;;;5085334;28;20476;-80
2024/02/27 03:20:10;;;;;;;21.38;9.20;;;9.50;99.90;;;;;;5085352;28;20419;-77
2024/02/27 03:22:39;;;;;;;19.92;9.98;;;9.50;99.90;;;;;;5080544;28;21000;-77
2024/02/27 03:25:08;;;;;;;18.77;9.70;;;9.50;99.90;;;;;;5082642;28;20131;-76
2024/02/27 03:27:38;;;;;;;19.75;7.38;;;9.50;99.90;;;;;;5079216;28;20053;-76
2024/02/27 03:30:13;;;;;;;18.92;9.30;;;9.50;99.90;;;;;;5083894;28;20094;-77
2024/02/27 03:32:41;;;;;;;19.52;9.30;;;9.60;99.90;;;;;;5082963;28;20040;-78
2024/02/27 03:35:10;;;;;;;21.35;9.65;;;9.60;99.90;;;;;;5068033;28;20076;-78
2024/02/27 03:37:38;;;;;;;20.58;9.65;;;9.50;99.90;;;;;;5082499;28;20108;-80
2024/02/27 03:40:09;;;;;;;20.45;10.57;;;9.50;99.90;;;;;;5063716;28;20110;-79
2024/02/27 03:42:39;;;;;;;19.75;9.98;;;9.50;99.90;;;;;;5070700;28;20098;-78
2024/02/27 03:45:10;;;;;;;20.55;9.52;;;9.50;99.90;;;;;;5062188;28;20122;-78
2024/02/27 03:47:39;;;;;;;17.55;9.20;;;9.50;99.90;;;;;;5079332;28;20511;-77
2024/02/27 03:50:08;;;;;;;20.35;9.63;;;9.50;99.90;;;;;;5063844;28;20123;-78
2024/02/27 03:52:37;;;;;;;21.77;9.98;;;9.50;99.90;;;;;;5064722;28;20480;-80
2024/02/27 03:55:06;;;;;;;22.40;9.18;;;9.50;99.90;;;;;;5071163;28;20143;-78
2024/02/27 03:57:34;;;;;;;19.48;9.07;;;9.50;99.90;;;;;;5066715;28;20056;-77
2024/02/27 04:00:06;;;;;;;18.98;10.13;;;9.60;99.90;;;;;;5065003;28;20047;-78
2024/02/27 04:02:34;;;;;;;19.98;8.32;;;9.50;99.90;;;;;;5070387;28;20438;-76
2024/02/27 04:05:03;;;;;;;21.98;10.73;;;9.50;99.90;;;;;;5089685;28;20048;-79
2024/02/27 04:07:32;;;;;;;23.42;10.95;;;9.50;99.90;;;;;;5090985;28;20072;-80
2024/02/27 04:10:01;;;;;;;21.27;10.73;;;9.50;99.90;;;;;;5102712;28;20143;-77
2024/02/27 04:12:29;;;;;;;20.50;9.30;;;9.50;99.90;;;;;;5103940;28;20051;-77
2024/02/27 04:14:58;;;;;;;23.77;9.77;;;9.50;99.90;;;;;;5086323;28;20476;-77
2024/02/27 04:17:28;;;;;;;20.17;9.43;;;9.50;99.90;;;;;;5086667;28;20098;-78
2024/02/27 04:19:57;;;;;;;19.02;9.82;;;9.50;99.90;;;;;;5091493;28;20028;-79
2024/02/27 04:22:26;;;;;;;20.10;9.63;;;9.50;99.90;;;;;;5083406;28;20147;-78
2024/02/27 04:24:54;;;;;;;18.40;9.38;;;9.40;99.90;;;;;;5101156;28;20054;-78
2024/02/27 04:27:22;;;;;;;22.35;10.52;;;9.40;99.90;;;;;;5087298;28;20491;-78
2024/02/27 04:29:52;;;;;;;19.38;9.77;;;9.40;99.90;;;;;;5082326;28;20079;-76
2024/02/27 04:32:20;;;;;;;18.23;9.23;;;9.40;99.90;;;;;;5096352;28;20072;-78
2024/02/27 04:34:50;;;;;;;20.05;9.25;;;9.40;99.90;;;;;;5085595;28;20044;-78
2024/02/27 04:37:18;;;;;;;23.23;10.65;;;9.40;99.90;;;;;;5103616;28;20586;-79
2024/02/27 04:39:46;;;;;;;22.30;9.88;;;9.40;99.90;;;;;;5089201;28;20131;-80
2024/02/27 04:42:15;;;;;;;23.15;9.95;;;9.40;99.90;;;;;;5093238;28;20402;-79
2024/02/27 04:44:43;;;;;;;22.02;10.10;;;9.40;99.90;;;;;;5081866;28;20044;-76
2024/02/27 04:47:12;;;;;;;19.88;10.57;;;9.40;99.90;;;;;;5078479;28;20106;-79
2024/02/27 04:49:40;;;;;;;23.70;10.52;;;9.40;99.90;;;;;;5082393;28;20168;-77
2024/02/27 04:52:11;;;;;;;20.60;9.57;;;9.40;99.90;;;;;;5076006;28;20131;-79
2024/02/27 04:54:40;;;;;;;23.45;11.35;;;9.30;99.90;;;;;;5082091;28;20043;-80
2024/02/27 04:57:08;;;;;;;23.67;11.13;;;9.30;99.90;;;;;;5083746;28;20119;-77
2024/02/27 04:59:37;;;;;;;22.42;11.48;;;9.30;99.90;;;;;;5107095;27;20047;-78
2024/02/27 05:02:05;;;;;;;26.55;10.55;;;9.30;99.90;;;;;;5096729;27;20097;-77
2024/02/27 05:04:34;;;;;;;23.58;11.38;;;9.30;99.90;;;;;;5104649;27;20044;-77
2024/02/27 05:07:02;;;;;;;23.15;11.68;;;9.30;99.90;;;;;;5102688;27;20076;-77
2024/02/27 05:09:32;;;;;;;22.58;11.70;;;9.30;99.90;;;;;;5089367;28;20514;-80
2024/02/27 05:12:01;;;;;;;28.38;11.52;;;9.30;99.90;;;;;;5087171;28;20044;-77
2024/02/27 05:14:29;;;;;;;25.67;12.35;;;9.20;99.90;;;;;;5106639;27;20052;-78
2024/02/27 05:16:58;;;;;;;24.33;11.43;;;9.30;99.90;;;;;;5103516;28;20511;-78
2024/02/27 05:19:26;;;;;;;24.08;10.40;;;9.20;99.90;;;;;;5083137;28;20114;-81
2024/02/27 05:21:57;;;;;;;23.67;11.85;;;9.20;99.90;;;;;;5083509;28;20044;-78
2024/02/27 05:24:26;;;;;;;21.52;10.73;;;9.20;99.90;;;;;;5091514;28;20044;-79
2024/02/27 05:26:56;;;;;;;22.70;10.35;;;9.20;99.90;;;;;;5079223;28;20049;-80
2024/02/27 05:29:24;;;;;;;19.95;10.38;;;9.20;99.90;;;;;;5081942;28;20053;-78
2024/02/27 05:31:52;;;;;;;23.85;11.30;;;9.20;99.90;;;;;;5087289;28;20517;-78
2024/02/27 05:34:21;;;;;;;25.35;11.23;;;9.20;99.90;;;;;;5086964;28;20063;-79
2024/02/27 05:36:50;;;;;;;22.08;10.85;;;9.20;99.90;;;;;;5084114;28;20089;-81
2024/02/27 05:39:18;;;;;;;26.50;11.90;;;9.20;99.90;;;;;;5087062;28;20419;-80
2024/02/27 05:41:46;;;;;;;24.48;12.52;;;9.20;99.90;;;;;;5083345;28;20128;-80
2024/02/27 05:44:16;;;;;;;24.75;10.80;;;9.20;99.90;;;;;;5084912;28;20135;-78
2024/02/27 05:46:44;;;;;;;23.25;11.07;;;9.10;99.90;;;;;;5099874;28;20503;-80
2024/02/27 05:49:13;;;;;;;22.13;10.57;;;9.10;99.90;;;;;;5087103;28;20068;-76
2024/02/27 05:51:42;;;;;;;23.55;11.48;;;9.20;99.90;;;;;;5085411;28;20040;-77
2024/02/27 05:54:10;;;;;;;21.13;9.82;;;9.10;99.90;;;;;;5090118;28;20060;-77
2024/02/27 05:56:39;;;;;;;21.13;10.45;;;9.20;99.90;;;;;;5083477;28;20132;-77
2024/02/27 05:59:07;;;;;;;19.48;9.82;;;9.20;99.90;;;;;;5085909;28;20107;-77
2024/02/27 06:01:37;;;;;;;28.35;10.65;;;9.20;99.90;;;;;;5087062;28;20044;-78
2024/02/27 06:04:05;;;;;;;19.42;9.68;;;9.20;99.90;;;;;;5103674;27;20052;-79
2024/02/27 06:06:34;;;;;;;21.67;10.27;;;9.20;99.90;;;;;;5083458;28;20398;-79
2024/02/27 06:09:07;;;;;;;25.52;11.98;;;9.20;99.90;;;;;;5100604;28;20101;-78
2024/02/27 06:11:35;;;;;;;23.13;10.93;;;9.20;99.90;;;;;;5085180;28;20116;-78
2024/02/27 06:14:04;;;;;;;20.60;10.75;;;9.20;99.90;;;;;;5099404;28;20062;-79
2024/02/27 06:16:33;;;;;;;31.77;11.73;;;9.20;99.90;;;;;;5098096;28;20506;-80
2024/02/27 06:19:03;;;;;;;23.52;11.43;;;9.20;99.90;;;;;;5088822;28;20465;-80
2024/02/27 06:24:18;;;;;;;23.52;11.25;;;9.30;99.90;;;;;;5084550;28;20048;-81
2024/02/27 06:26:46;;;;;;;21.58;9.68;;;9.30;99.90;;;;;;5084804;28;20058;-77
2024/02/27 06:29:14;;;;;;;22.02;10.25;;;9.30;99.90;;;;;;5080676;28;20067;-80
2024/02/27 06:31:43;;;;;;;23.17;10.57;;;9.30;99.90;;;;;;5099495;28;20090;-79
2024/02/27 06:34:12;;;;;;;23.77;10.13;;;9.40;99.90;;;;;;5083430;28;20044;-79
2024/02/27 06:36:41;;;;;;;19.45;10.02;;;9.30;99.90;;;;;;5081824;28;20517;-80
2024/02/27 06:39:10;;;;;;;21.55;10.98;;;9.40;99.90;;;;;;5085492;28;20399;-79
2024/02/27 06:41:38;;;;;;;21.63;9.75;;;9.40;99.90;;;;;;5089957;28;20076;-79
2024/02/27 06:44:07;;;;;;;19.88;10.23;;;9.40;99.90;;;;;;5083139;28;20039;-83
2024/02/27 06:46:36;;;;;;;20.05;10.50;;;9.40;99.90;;;;;;5100318;27;20051;-82
2024/02/27 06:49:07;;;;;;;20.58;9.95;;;9.50;99.90;;;;;;5084328;28;20045;-81
2024/02/27 06:51:48;;;;;;;20.52;9.30;;;9.50;99.90;;;;;;5100555;27;20454;-78
2024/02/27 06:54:16;;;;;;;19.33;9.82;;;9.60;99.90;;;;;;5085428;28;20052;-80
2024/02/27 06:56:45;;;;;;;20.42;10.10;;;9.60;99.90;;;;;;5087423;28;20078;-81
2024/02/27 06:59:13;;;;;;;23.58;10.35;;;9.60;99.90;;;;;;5084810;28;20083;-80
2024/02/27 07:01:42;;;;;;;21.83;10.20;;;9.70;99.90;;;;;;5098998;27;20128;-78
2024/02/27 07:04:10;;;;;;;22.33;10.13;;;9.70;99.90;;;;;;5082720;28;20048;-82
2024/02/27 07:06:39;;;;;;;20.63;10.88;;;9.70;99.90;;;;;;5079580;28;20048;-81
2024/02/27 07:09:12;;;;;;;22.30;10.90;;;9.80;99.90;;;;;;5098054;28;20048;-77
2024/02/27 07:11:40;;;;;;;20.95;10.23;;;9.90;99.90;;;;;;5083549;28;20057;-80
2024/02/27 07:14:12;;;;;;;23.33;10.95;;;9.90;99.90;;;;;;5086755;28;20086;-80
2024/02/27 07:16:41;;;;;;;18.88;9.30;;;9.90;99.90;;;;;;5090785;28;20384;-78
2024/02/27 07:19:09;;;;;;;19.98;9.02;;;10.00;99.90;;;;;;5087256;28;20133;-77
2024/02/27 07:21:38;;;;;;;21.02;10.55;;;10.10;99.90;;;;;;5082501;28;20044;-81
2024/02/27 07:24:07;;;;;;;20.90;9.73;;;10.20;99.90;;;;;;5083556;28;20047;-79
2024/02/27 07:26:37;;;;;;;16.42;8.80;;;10.20;99.90;;;;;;5081564;28;20060;-80
2024/02/27 07:29:06;;;;;;;22.02;9.07;;;10.40;99.90;;;;;;5081721;28;20503;-76
2024/02/27 07:31:35;;;;;;;18.45;9.13;;;10.40;99.90;;;;;;5087630;28;20594;-77
2024/02/27 07:34:04;;;;;;;18.27;9.38;;;10.50;99.90;;;;;;5085020;28;20519;-79
2024/02/27 07:36:32;;;;;;;20.17;9.77;;;10.60;99.90;;;;;;5089457;28;20036;-79
2024/02/27 07:39:01;;;;;;;21.83;8.60;;;10.60;99.90;;;;;;5090551;28;20054;-80
2024/02/27 07:41:29;;;;;;;18.95;8.80;;;10.70;99.90;;;;;;5088677;28;20036;-77
2024/02/27 07:43:59;;;;;;;19.58;9.88;;;10.80;99.90;;;;;;5095670;28;20102;-78
2024/02/27 07:46:32;;;;;;;18.73;10.10;;;10.80;99.90;;;;;;5085095;28;20036;-77
2024/02/27 07:49:01;;;;;;;21.90;10.07;;;11.00;99.90;;;;;;5107522;27;20143;-80
2024/02/27 07:51:31;;;;;;;18.92;9.75;;;11.10;99.90;;;;;;5101710;28;20048;-76
2024/02/27 07:54:00;;;;;;;20.00;9.30;;;11.10;99.90;;;;;;5107370;27;20133;-79
2024/02/27 07:56:31;;;;;;;23.20;10.52;;;11.20;99.90;;;;;;5090249;28;20059;-78
2024/02/27 07:59:02;;;;;;;21.00;10.25;;;11.20;99.90;;;;;;5103370;27;20094;-78
2024/02/27 08:01:31;;;;;;;23.60;9.70;;;11.20;99.90;;;;;;5081326;28;20040;-78
2024/02/27 08:03:59;;;;;;;21.50;9.38;;;11.30;99.90;;;;;;5086370;28;20182;-79
2024/02/27 08:06:28;;;;;;;24.80;11.60;;;11.30;99.90;;;;;;5085624;28;20507;-76
2024/02/27 08:08:57;;;;;;;20.65;10.15;;;11.30;99.90;;;;;;5087584;28;20051;-80
2024/02/27 08:11:27;;;;;;;49.30;20.35;;;11.30;99.90;;;;;;5088529;28;20037;-78
2024/02/27 08:13:57;;;;;;;30.45;12.45;;;11.30;99.90;;;;;;5097931;28;20138;-79
2024/02/27 08:16:27;;;;;;;27.58;11.73;;;11.40;99.90;;;;;;5089212;28;20071;-76
2024/02/27 08:18:56;;;;;;;23.77;10.57;;;11.50;99.90;;;;;;5085116;28;20288;-76
2024/02/27 08:21:24;;;;;;;22.85;10.60;;;11.60;99.90;;;;;;5083058;28;20090;-79
2024/02/27 08:23:53;;;;;;;16.70;8.90;;;11.60;99.90;;;;;;5093101;28;20047;-77
2024/02/27 08:26:22;;;;;;;20.83;9.68;;;11.60;99.90;;;;;;5084769;28;20045;-76
2024/02/27 08:28:50;;;;;;;16.35;9.18;;;11.60;99.90;;;;;;5100206;28;20044;-78
2024/02/27 08:31:19;;;;;;;19.48;9.70;;;11.60;99.90;;;;;;5083031;28;20546;-79
2024/02/27 08:33:48;;;;;;;18.95;9.55;;;11.70;99.90;;;;;;5079100;28;20510;-81
2024/02/27 08:36:17;;;;;;;18.70;10.93;;;11.80;99.90;;;;;;5087987;28;20135;-78
2024/02/27 08:38:46;;;;;;;21.75;10.73;;;11.90;99.90;;;;;;5105091;27;20505;-79
2024/02/27 08:41:20;;;;;;;19.52;9.65;;;12.00;99.90;;;;;;5044992;28;20042;-78
2024/02/27 08:43:49;;;;;;;21.92;10.15;;;12.30;99.90;;;;;;5106145;27;20342;-80
2024/02/27 08:46:18;;;;;;;24.60;10.75;;;12.50;99.90;;;;;;5084504;28;20044;-76
2024/02/27 08:48:50;;;;;;;19.60;9.88;;;12.60;99.90;;;;;;5087436;28;20056;-78
2024/02/27 08:51:19;;;;;;;21.92;9.75;;;12.60;99.90;;;;;;5102937;28;20047;-79
2024/02/27 08:53:48;;;;;;;23.20;10.13;;;12.70;99.90;;;;;;5077351;28;20044;-80
2024/02/27 08:56:16;;;;;;;20.00;9.48;;;12.80;99.90;;;;;;5089589;28;20048;-77
2024/02/27 08:58:47;;;;;;;20.20;9.57;;;13.00;99.90;;;;;;5081147;28;20126;-78
2024/02/27 09:01:16;;;;;;;18.48;9.57;;;13.10;99.90;;;;;;5101005;28;20093;-78
2024/02/27 09:03:44;;;;;;;16.10;8.95;;;13.20;99.90;;;;;;5086448;28;20056;-81
2024/02/27 09:06:14;;;;;;;24.60;11.10;;;13.30;99.90;;;;;;5087682;28;20044;-80
2024/02/27 09:08:43;;;;;;;22.52;10.77;;;13.20;99.90;;;;;;5085184;28;20040;-79
2024/02/27 09:11:11;;;;;;;17.00;7.82;;;13.30;99.90;;;;;;5087267;28;20135;-77
2024/02/27 09:13:40;;;;;;;21.23;11.27;;;13.30;99.90;;;;;;5085584;28;20186;-78
2024/02/27 09:16:08;;;;;;;18.38;8.65;;;13.50;99.90;;;;;;5081926;28;20046;-77
2024/02/27 09:18:40;;;;;;;21.55;11.05;;;13.50;99.90;;;;;;5085198;28;20064;-80
2024/02/27 09:21:09;;;;;;;19.67;10.02;;;13.60;99.90;;;;;;5089113;28;20930;-76
2024/02/27 09:23:43;;;;;;;28.25;12.02;;;13.60;99.90;;;;;;5086281;28;20028;-76
2024/02/27 09:26:12;;;;;;;17.88;10.05;;;13.50;99.90;;;;;;5105233;27;20999;-77
2024/02/27 09:28:40;;;;;;;19.30;9.57;;;13.50;99.90;;;;;;5085301;28;20541;-78
2024/02/27 09:31:09;;;;;;;22.23;9.40;;;13.50;99.90;;;;;;5102481;27;20039;-76
2024/02/27 09:33:47;;;;;;;18.17;10.10;;;13.60;99.90;;;;;;5085673;28;20119;-77
2024/02/27 09:36:15;;;;;;;21.10;11.07;;;13.60;99.90;;;;;;5085994;28;20442;-77
2024/02/27 09:38:45;;;;;;;21.98;10.82;;;13.50;99.90;;;;;;5101667;27;20044;-81
2024/02/27 09:41:17;;;;;;;23.73;9.70;;;13.50;99.90;;;;;;5102537;27;20055;-76
2024/02/27 09:43:52;;;;;;;18.02;9.80;;;13.50;99.90;;;;;;5103074;27;20036;-78
2024/02/27 09:46:23;;;;;;;17.20;9.27;;;13.50;99.90;;;;;;5102378;27;20051;-79
2024/02/27 09:48:53;;;;;;;17.42;9.25;;;13.60;99.90;;;;;;5083159;28;20590;-79
2024/02/27 09:51:23;;;;;;;21.50;10.77;;;13.70;99.90;;;;;;5085714;28;20075;-77
2024/02/27 09:53:57;;;;;;;23.55;10.32;;;13.70;99.90;;;;;;5089332;28;20117;-77
2024/02/27 09:56:27;;;;;;;22.42;11.77;;;13.80;99.90;;;;;;5089016;28;20063;-80
2024/02/27 09:58:55;;;;;;;20.80;10.70;;;13.90;99.90;;;;;;5086460;28;20074;-78
2024/02/27 10:01:30;;;;;;;17.90;9.55;;;13.90;99.90;;;;;;5088162;28;20401;-76
2024/02/27 10:04:00;;;;;;;19.35;10.07;;;14.00;99.90;;;;;;5085087;28;20042;-78
2024/02/27 10:06:33;;;;;;;20.33;11.05;;;14.10;99.90;;;;;;5098841;27;21492;-75
2024/02/27 10:09:06;;;;;;;20.70;10.13;;;14.20;99.90;;;;;;5085921;28;20040;-80
2024/02/27 10:11:34;;;;;;;19.90;9.00;;;14.20;99.90;;;;;;5083137;28;20056;-79
2024/02/27 10:14:03;;;;;;;20.05;9.85;;;14.20;99.90;;;;;;5087790;28;20044;-75
2024/02/27 10:16:35;;;;;;;;;;;14.20;99.90;;;;;;5086992;28;20048;-77
2024/02/27 10:19:04;;;;;;;22.35;10.68;;;14.20;99.90;;;;;;5080964;28;19931;-79
2024/02/27 10:21:32;;;;;;;18.95;10.38;;;14.20;99.90;;;;;;5084494;28;20645;-77
2024/02/27 10:24:03;;;;;;;21.67;11.23;;;14.30;99.90;;;;;;5080467;28;20419;-77
2024/02/27 10:26:31;;;;;;;20.95;10.65;;;14.30;99.90;;;;;;5088450;28;20505;-76
2024/02/27 10:29:00;;;;;;;21.98;9.60;;;14.30;99.90;;;;;;5083508;28;20044;-77
2024/02/27 10:31:31;;;;;;;20.60;10.38;;;14.30;99.90;;;;;;5089486;28;20494;-76
2024/02/27 10:34:02;;;;;;;13.90;7.47;;;14.20;99.90;;;;;;5086913;28;20109;-75
2024/02/27 10:36:32;;;;;;;18.55;10.35;;;14.30;99.90;;;;;;5085215;28;20427;-76
2024/02/27 10:39:11;;;;;;;21.77;11.00;;;14.40;99.90;;;;;;5084618;28;20106;-76
2024/02/27 10:41:40;;;;;;;21.65;10.10;;;14.50;99.90;;;;;;5086539;28;20074;-77
2024/02/27 10:44:08;;;;;;;17.80;9.82;;;14.60;99.90;;;;;;5084069;28;20048;-76
2024/02/27 10:46:42;;;;;;;19.48;8.80;;;14.60;99.90;;;;;;5082614;28;20110;-77
2024/02/27 10:49:10;;;;;;;19.85;9.60;;;14.70;99.90;;;;;;5086406;28;20040;-76
2024/02/27 10:51:43;;;;;;;21.20;10.73;;;14.60;99.90;;;;;;5082112;28;20056;-77
2024/02/27 10:54:15;;;;;;;18.67;9.35;;;14.50;99.90;;;;;;5100743;28;20400;-78
2024/02/27 10:56:44;;;;;;;20.88;10.27;;;14.40;99.90;;;;;;5102958;27;20105;-76
2024/02/27 10:59:14;;;;;;;21.48;10.30;;;14.40;99.90;;;;;;5095345;28;20048;-76
2024/02/27 11:01:43;;;;;;;19.95;10.63;;;14.40;99.90;;;;;;5090042;28;20499;-75
2024/02/27 11:04:20;;;;;;;22.92;11.13;;;14.50;99.90;;;;;;5094897;28;20044;-75
2024/02/27 11:06:51;;;;;;;19.60;9.55;;;14.40;99.90;;;;;;5083561;28;20056;-74
2024/02/27 11:09:27;;;;;;;17.92;9.20;;;14.40;99.90;;;;;;5084300;28;20419;-76
2024/02/27 11:12:00;;;;;;;19.23;9.25;;;14.50;99.90;;;;;;5080034;28;20147;-77
2024/02/27 11:14:29;;;;;;;;;;;14.60;99.90;;;;;;5081262;28;20128;-75
2024/02/27 11:17:04;;;;;;;19.08;7.97;;;14.70;99.90;;;;;;5083504;28;20338;-75
2024/02/27 11:19:35;;;;;;;20.70;9.98;;;14.80;99.90;;;;;;5066736;28;20114;-74
2024/02/27 11:22:05;;;;;;;24.10;10.10;;;14.80;99.90;;;;;;5087282;28;20411;-79
2024/02/27 11:24:36;;;;;;;19.75;8.95;;;14.90;99.90;;;;;;5079538;28;20599;-75
2024/02/27 11:27:05;;;;;;;18.55;9.40;;;14.80;99.90;;;;;;5094888;28;20094;-74
2024/02/27 11:29:35;;;;;;;18.52;9.75;;;14.80;99.90;;;;;;5075380;28;20524;-75
2024/02/27 11:32:05;;;;;;;22.92;11.05;;;14.80;99.90;;;;;;5083723;28;20498;-74
2024/02/27 11:34:34;;;;;;;21.00;10.88;;;14.80;99.90;;;;;;5081204;28;20044;-75
2024/02/27 11:37:15;;;;;;;20.27;10.57;;;14.90;99.90;;;;;;5080093;28;20052;-75
2024/02/27 11:39:45;;;;;;;18.33;9.60;;;14.90;99.90;;;;;;5079850;28;20072;-75
2024/02/27 11:42:22;;;;;;;20.45;11.38;;;14.90;99.90;;;;;;5082457;28;20036;-76
2024/02/27 11:45:07;;;;;;;26.98;11.23;;;14.90;99.90;;;;;;5080771;28;20113;-76
2024/02/27 11:47:47;;;;;;;17.98;10.95;;;14.90;99.90;;;;;;5085191;28;20526;-77
2024/02/27 11:50:45;;;;;;;20.20;10.20;;;14.90;99.90;;;;;;5078446;28;20484;-78
2024/02/27 11:53:37;;;;;;;19.23;10.00;;;15.00;99.90;;;;;;5087781;28;20036;-77
2024/02/27 11:56:09;;;;;;;18.40;9.77;;;15.00;99.90;;;;;;5077224;28;20098;-77
2024/02/27 11:58:37;;;;;;;23.05;10.13;;;15.10;99.90;;;;;;5090648;28;20131;-77
2024/02/27 12:01:07;;;;;;;19.60;9.98;;;15.20;99.90;;;;;;5078574;28;20460;-76
2024/02/27 12:03:36;;;;;;;15.15;8.95;;;15.20;99.90;;;;;;5099841;28;20040;-77
2024/02/27 12:06:07;;;;;;;18.77;9.27;;;15.30;99.90;;;;;;5079420;28;20167;-74
2024/02/27 12:08:35;;;;;;;19.38;10.00;;;15.50;99.90;;;;;;5082167;28;20047;-74
2024/02/27 12:11:07;;;;;;;19.25;9.98;;;15.60;99.90;;;;;;5096466;28;20036;-74
2024/02/27 12:13:37;;;;;;;21.50;10.73;;;15.70;99.90;;;;;;5100160;28;20080;-75
2024/02/27 12:16:06;;;;;;;16.20;8.90;;;15.80;99.90;;;;;;5086616;28;20036;-74
2024/02/27 12:18:35;;;;;;;16.85;8.90;;;15.70;99.90;;;;;;5094074;28;20055;-74
2024/02/27 12:21:05;;;;;;;15.32;8.73;;;15.60;99.90;;;;;;5098945;28;20052;-74
2024/02/27 12:23:35;;;;;;;15.35;8.35;;;15.60;99.90;;;;;;5087641;28;20544;-74
2024/02/27 12:26:04;;;;;;;18.52;8.65;;;15.60;99.90;;;;;;5081923;28;20161;-74
2024/02/27 12:28:33;;;;;;;16.67;8.75;;;15.60;99.90;;;;;;5085172;28;20051;-74
2024/02/27 12:31:03;;;;;;;17.55;8.40;;;15.60;99.90;;;;;;5083273;28;20478;-75
2024/02/27 12:33:32;;;;;;;19.90;9.90;;;15.60;99.90;;;;;;5084281;28;20055;-74
2024/02/27 12:36:04;;;;;;;20.73;9.73;;;15.60;99.90;;;;;;5082058;28;20053;-73
2024/02/27 12:38:36;;;;;;;23.60;9.23;;;15.60;99.90;;;;;;5101080;28;20052;-74
2024/02/27 12:41:07;;;;;;;18.25;9.50;;;15.80;99.90;;;;;;5082430;28;20285;-75
2024/02/27 12:43:36;;;;;;;20.52;10.07;;;15.90;99.90;;;;;;5082357;28;20048;-73
2024/02/27 12:46:07;;;;;;;19.25;10.25;;;16.00;99.90;;;;;;5085511;28;20131;-74
2024/02/27 12:48:35;;;;;;;18.13;9.95;;;16.10;99.90;;;;;;5099640;27;20044;-73
2024/02/27 12:51:05;;;;;;;20.42;9.40;;;16.20;99.90;;;;;;5086204;28;20043;-74
2024/02/27 12:53:34;;;;;;;15.95;8.30;;;16.20;99.90;;;;;;5085043;28;20051;-73